createdAt,value
2022-08-14T00:01:54.432Z,2.72
2022-08-14T00:04:36.029Z,3.20
2022-08-14T00:07:10.906Z,2.45
2022-08-14T00:09:55.934Z,2.50
2022-08-14T00:12:33.958Z,2.42
2022-08-14T00:15:17.517Z,2.60
2022-08-14T00:17:47.925Z,2.80
2022-08-14T00:20:23.672Z,2.63
2022-08-14T00:22:57.792Z,2.42
2022-08-14T00:25:41.719Z,2.70
2022-08-14T00:28:10.982Z,2.70
2022-08-14T00:30:42.851Z,2.33
2022-08-14T00:33:15.508Z,2.58
2022-08-14T00:36:35.940Z,3.03
2022-08-14T00:38:31.853Z,3.17
2022-08-14T00:40:58.877Z,2.92
2022-08-14T00:43:25.604Z,2.80
2022-08-14T00:46:02.859Z,2.88
2022-08-14T00:48:34.770Z,2.78
2022-08-14T00:51:37.702Z,2.55
2022-08-14T00:54:05.138Z,2.70
2022-08-14T00:56:44.813Z,2.63
2022-08-14T00:59:11.734Z,2.70
2022-08-14T01:01:42.954Z,2.92
2022-08-14T01:04:52.187Z,2.85
2022-08-14T01:06:58.494Z,3.10
2022-08-14T01:09:25.843Z,3.30
2022-08-14T01:12:02.900Z,2.70
2022-08-14T01:14:30.277Z,2.65
2022-08-14T01:16:57.409Z,3.00
2022-08-14T01:19:43.858Z,3.00
2022-08-14T01:22:18.637Z,2.77
2022-08-14T01:24:47.443Z,2.80
2022-08-14T01:27:19.569Z,3.08
2022-08-14T01:29:58.860Z,2.90
2022-08-14T01:32:45.105Z,3.00
2022-08-14T01:36:04.361Z,3.00
2022-08-14T01:38:06.822Z,3.00
2022-08-14T01:40:40.990Z,3.10
2022-08-14T01:43:15.950Z,3.05
2022-08-14T01:46:06.005Z,3.00
2022-08-14T01:48:37.665Z,3.03
2022-08-14T01:51:19.352Z,2.92
2022-08-14T01:53:51.379Z,2.60
2022-08-14T01:56:37.249Z,2.95
2022-08-14T01:59:09.787Z,3.03
2022-08-14T02:01:37.973Z,3.10
2022-08-14T02:04:40.533Z,3.03
2022-08-14T02:06:57.270Z,2.97
2022-08-14T02:09:24.222Z,3.08
2022-08-14T02:11:54.690Z,3.08
2022-08-14T02:14:31.601Z,3.10
2022-08-14T02:17:00.044Z,2.90
2022-08-14T02:19:32.423Z,3.40
2022-08-14T02:22:03.543Z,3.30
2022-08-14T02:24:38.880Z,3.35
2022-08-14T02:28:23.108Z,3.30
2022-08-14T02:29:59.780Z,3.22
2022-08-14T02:32:44.493Z,3.40
2022-08-14T02:35:18.058Z,3.60
2022-08-14T02:37:49.616Z,3.33
2022-08-14T02:40:20.866Z,3.00
2022-08-14T02:43:02.661Z,3.15
2022-08-14T02:45:38.722Z,3.40
2022-08-14T02:49:03.797Z,3.35
2022-08-14T02:51:11.275Z,3.33
2022-08-14T02:53:42.261Z,3.27
2022-08-14T02:57:14.425Z,3.47
2022-08-14T02:59:06.589Z,3.40
2022-08-14T03:01:43.851Z,3.60
2022-08-14T03:04:17.548Z,3.28
2022-08-14T03:06:56.976Z,3.23
2022-08-14T03:10:26.318Z,3.25
2022-08-14T03:12:31.677Z,3.30
2022-08-14T03:15:03.153Z,3.70
2022-08-14T03:17:32.042Z,3.60
2022-08-14T03:20:16.437Z,3.47
2022-08-14T03:22:43.983Z,3.45
2022-08-14T03:25:16.308Z,3.20
2022-08-14T03:27:47.992Z,3.70
2022-08-14T03:30:24.691Z,3.15
2022-08-14T03:33:06.950Z,3.50
2022-08-14T03:35:39.642Z,3.50
2022-08-14T03:39:14.716Z,3.25
2022-08-14T03:40:56.043Z,3.85
2022-08-14T03:43:22.577Z,3.63
2022-08-14T03:45:49.129Z,3.40
2022-08-14T03:48:30.277Z,3.75
2022-08-14T03:50:57.573Z,3.55
2022-08-14T03:53:25.466Z,3.60
2022-08-14T03:55:58.680Z,3.53
2022-08-14T03:58:36.453Z,3.50
2022-08-14T04:01:04.286Z,3.83
2022-08-14T04:03:33.268Z,4.53
2022-08-14T04:06:05.300Z,3.92
2022-08-14T04:08:36.263Z,3.95
2022-08-14T04:11:08.085Z,3.77
2022-08-14T04:13:41.049Z,4.00
2022-08-14T04:16:21.810Z,4.22
2022-08-14T04:18:54.907Z,3.90
2022-08-14T04:21:24.494Z,4.18
2022-08-14T04:23:57.911Z,4.10
2022-08-14T04:26:42.283Z,4.82
2022-08-14T04:29:14.959Z,4.40
2022-08-14T04:33:10.369Z,4.60
2022-08-14T04:34:30.698Z,5.03
2022-08-14T04:37:22.389Z,4.80
2022-08-14T04:40:11.400Z,5.15
2022-08-14T04:42:57.034Z,5.00
2022-08-14T04:45:24.608Z,5.18
2022-08-14T04:48:10.751Z,5.15
2022-08-14T04:50:45.471Z,5.20
2022-08-14T04:53:26.114Z,4.85
2022-08-14T04:55:53.566Z,5.10
2022-08-14T04:58:32.376Z,4.88
2022-08-14T05:01:00.649Z,4.80
2022-08-14T05:03:29.663Z,5.03
2022-08-14T05:05:59.370Z,4.95
2022-08-14T05:08:32.264Z,5.07
2022-08-14T05:11:13.447Z,5.03
2022-08-14T05:14:34.186Z,4.72
2022-08-14T05:16:34.059Z,4.03
2022-08-14T05:19:24.535Z,4.57
2022-08-14T05:21:56.465Z,4.78
2022-08-14T05:24:25.810Z,5.40
2022-08-14T05:26:52.437Z,5.30
2022-08-14T05:29:20.186Z,6.00
2022-08-14T05:31:47.301Z,5.30
2022-08-14T05:34:13.969Z,5.93
2022-08-14T05:36:42.779Z,6.00
2022-08-14T05:39:17.114Z,6.53
2022-08-14T05:41:53.883Z,6.47
2022-08-14T05:44:20.941Z,6.30
2022-08-14T05:46:47.506Z,6.30
2022-08-14T05:49:16.620Z,6.35
2022-08-14T05:51:47.153Z,6.60
2022-08-14T05:54:27.172Z,6.60
2022-08-14T05:56:55.251Z,6.38
2022-08-14T05:59:36.534Z,6.40
2022-08-14T06:02:05.833Z,6.20
2022-08-14T06:04:34.851Z,5.90
2022-08-14T06:07:02.102Z,5.60
2022-08-14T06:09:30.762Z,5.65
2022-08-14T06:12:03.202Z,5.45
2022-08-14T06:14:31.284Z,5.35
2022-08-14T06:16:58.681Z,5.15
2022-08-14T06:19:26.308Z,5.13
2022-08-14T06:21:58.108Z,5.05
2022-08-14T06:24:30.699Z,5.05
2022-08-14T06:27:04.611Z,4.85
2022-08-14T06:29:34.713Z,4.88
2022-08-14T06:32:38.755Z,5.00
2022-08-14T06:35:02.186Z,4.75
2022-08-14T06:37:44.215Z,4.70
2022-08-14T06:40:25.613Z,4.55
2022-08-14T06:43:06.923Z,4.50
2022-08-14T06:45:37.470Z,4.57
2022-08-14T06:48:12.859Z,4.15
2022-08-14T06:50:39.701Z,4.28
2022-08-14T06:53:08.236Z,4.35
2022-08-14T06:55:58.270Z,4.38
2022-08-14T06:58:28.426Z,4.10
2022-08-14T07:01:14.972Z,4.47
2022-08-14T07:04:00.829Z,4.22
2022-08-14T07:06:45.672Z,4.50
2022-08-14T07:09:18.137Z,4.00
2022-08-14T07:11:49.634Z,3.80
2022-08-14T07:14:16.155Z,3.90
2022-08-14T07:16:42.639Z,4.13
2022-08-14T07:19:09.944Z,3.90
2022-08-14T07:21:39.707Z,4.03
2022-08-14T07:24:09.740Z,3.57
2022-08-14T07:26:48.761Z,3.53
2022-08-14T07:29:15.254Z,4.13
2022-08-14T07:31:44.373Z,3.83
2022-08-14T07:34:11.561Z,3.63
2022-08-14T07:36:38.166Z,3.63
2022-08-14T07:39:27.761Z,3.50
2022-08-14T07:41:54.517Z,4.07
2022-08-14T07:44:29.390Z,3.83
2022-08-14T07:47:00.019Z,4.10
2022-08-14T07:49:27.442Z,3.80
2022-08-14T07:51:54.578Z,3.42
2022-08-14T07:54:23.442Z,3.50
2022-08-14T07:57:00.121Z,3.30
2022-08-14T07:59:41.320Z,4.00
2022-08-14T08:02:19.637Z,3.80
2022-08-14T08:04:59.004Z,3.80
2022-08-14T08:07:30.136Z,4.05
2022-08-14T08:09:58.378Z,3.88
2022-08-14T08:12:29.580Z,3.67
2022-08-14T08:15:02.615Z,4.00
2022-08-14T08:17:35.073Z,3.90
2022-08-14T08:20:06.997Z,3.88
2022-08-14T08:22:36.772Z,3.80
2022-08-14T08:25:08.518Z,4.18
2022-08-14T08:27:44.593Z,3.63
2022-08-14T08:30:12.246Z,3.30
2022-08-14T08:32:43.442Z,3.30
2022-08-14T08:35:16.753Z,3.63
2022-08-14T08:37:44.112Z,3.50
2022-08-14T08:40:11.265Z,2.93
2022-08-14T08:42:47.815Z,3.42
2022-08-14T08:45:20.908Z,3.47
2022-08-14T08:47:48.465Z,4.05
2022-08-14T08:53:02.116Z,3.77
2022-08-14T08:55:31.300Z,3.50
2022-08-14T08:58:05.289Z,3.85
2022-08-14T09:00:34.905Z,3.55
2022-08-14T09:03:20.741Z,7.38
2022-08-14T09:05:54.225Z,5.00
2022-08-14T09:08:31.699Z,7.75
2022-08-14T09:11:19.110Z,6.32
2022-08-14T09:13:50.167Z,3.88
2022-08-14T09:16:20.667Z,5.65
2022-08-14T09:18:48.528Z,5.90
2022-08-14T09:21:16.233Z,3.05
2022-08-14T09:24:26.104Z,3.10
2022-08-14T09:26:29.781Z,3.22
2022-08-14T09:29:00.534Z,3.10
2022-08-14T09:31:43.204Z,3.20
2022-08-14T09:34:28.151Z,2.92
2022-08-14T09:37:29.937Z,2.70
2022-08-14T09:40:20.622Z,2.78
2022-08-14T09:43:03.467Z,3.03
2022-08-14T09:45:53.595Z,2.90
2022-08-14T09:48:30.002Z,3.20
2022-08-14T09:54:18.674Z,2.80
2022-08-14T09:56:32.808Z,3.40
2022-08-14T09:59:15.505Z,3.57
2022-08-14T10:01:46.205Z,3.15
2022-08-14T10:04:35.766Z,3.42
2022-08-14T10:07:05.575Z,3.33
2022-08-14T10:09:33.534Z,3.17
2022-08-14T10:12:04.272Z,3.10
2022-08-14T10:14:35.943Z,2.88
2022-08-14T10:17:06.314Z,4.10
2022-08-14T10:19:35.961Z,3.05
2022-08-14T10:23:21.873Z,3.47
2022-08-14T10:24:59.755Z,3.20
2022-08-14T10:27:28.309Z,2.85
2022-08-14T10:30:00.778Z,3.33
2022-08-14T10:32:39.989Z,3.30
2022-08-14T10:35:14.195Z,3.50
2022-08-14T10:37:49.930Z,3.33
2022-08-14T10:40:43.319Z,3.53
2022-08-14T10:43:23.052Z,3.50
2022-08-14T10:46:22.118Z,3.40
2022-08-14T10:49:04.244Z,3.50
2022-08-14T10:51:39.833Z,3.40
2022-08-14T10:54:26.121Z,3.42
2022-08-14T10:57:10.531Z,3.25
2022-08-14T10:59:45.558Z,3.33
2022-08-14T11:02:44.864Z,3.38
2022-08-14T11:05:19.218Z,2.97
2022-08-14T11:07:56.409Z,3.30
2022-08-14T11:10:27.668Z,3.33
2022-08-14T11:12:57.755Z,3.33
2022-08-14T11:15:32.338Z,3.15
2022-08-14T11:18:01.796Z,3.10
2022-08-14T11:20:32.239Z,3.35
2022-08-14T11:23:01.026Z,3.67
2022-08-14T11:25:44.036Z,3.40
2022-08-14T11:28:46.241Z,3.00
2022-08-14T11:31:11.134Z,3.10
2022-08-14T11:33:38.860Z,3.30
2022-08-14T11:36:17.119Z,3.50
2022-08-14T11:38:46.038Z,3.65
2022-08-14T11:41:18.679Z,3.13
2022-08-14T11:43:55.799Z,3.57
2022-08-14T11:46:29.516Z,3.50
2022-08-14T11:49:03.551Z,3.30
2022-08-14T11:51:50.705Z,5.10
2022-08-14T11:54:19.575Z,2.97
2022-08-14T11:56:49.897Z,2.83
2022-08-14T11:59:18.968Z,3.25
2022-08-14T12:01:48.836Z,3.30
2022-08-14T12:04:32.479Z,3.30
2022-08-14T12:07:01.283Z,3.15
2022-08-14T12:09:47.226Z,3.20
2022-08-14T12:12:35.888Z,3.20
2022-08-14T12:15:05.454Z,2.80
2022-08-14T12:17:47.577Z,3.00
2022-08-14T12:20:31.924Z,3.47
2022-08-14T12:23:02.236Z,3.20
2022-08-14T12:25:34.788Z,3.67
2022-08-14T12:28:08.526Z,3.08
2022-08-14T12:30:48.566Z,3.42
2022-08-14T12:33:33.713Z,3.47
2022-08-14T12:36:07.953Z,3.53
2022-08-14T12:38:43.790Z,3.50
2022-08-14T12:41:20.285Z,3.88
2022-08-14T12:43:59.864Z,3.25
2022-08-14T12:46:29.343Z,3.55
2022-08-14T12:49:06.971Z,3.57
2022-08-14T12:51:33.560Z,3.20
2022-08-14T12:54:00.815Z,3.55
2022-08-14T12:56:34.166Z,4.20
2022-08-14T12:59:01.715Z,4.03
2022-08-14T13:01:31.632Z,4.00
2022-08-14T13:04:17.863Z,4.35
2022-08-14T13:06:50.595Z,4.45
2022-08-14T13:09:18.995Z,4.22
2022-08-14T13:11:58.288Z,4.45
2022-08-14T13:14:29.629Z,4.13
2022-08-14T13:16:58.654Z,4.13
2022-08-14T13:19:28.189Z,4.25
2022-08-14T13:22:04.670Z,4.53
2022-08-14T13:24:33.394Z,4.68
2022-08-14T13:27:04.214Z,4.40
2022-08-14T13:29:33.684Z,3.97
2022-08-14T13:32:01.039Z,4.18
2022-08-14T13:34:29.250Z,3.85
2022-08-14T13:37:03.919Z,4.35
2022-08-14T13:39:35.916Z,4.70
2022-08-14T13:42:13.394Z,4.80
2022-08-14T13:44:42.819Z,4.85
2022-08-14T13:47:15.257Z,5.07
2022-08-14T13:49:57.624Z,4.60
2022-08-14T13:52:52.254Z,4.50
2022-08-14T13:55:13.540Z,4.47
2022-08-14T13:57:51.431Z,4.43
2022-08-14T14:00:52.806Z,4.65
2022-08-14T14:03:21.985Z,4.35
2022-08-14T14:05:54.304Z,4.40
2022-08-14T14:08:45.733Z,5.00
2022-08-14T14:11:09.890Z,4.82
2022-08-14T14:13:37.145Z,4.60
2022-08-14T14:16:11.766Z,5.35
2022-08-14T14:18:43.383Z,4.97
2022-08-14T14:21:13.046Z,4.47
2022-08-14T14:23:43.170Z,4.80
2022-08-14T14:26:13.934Z,4.47
2022-08-14T14:28:41.699Z,5.18
2022-08-14T14:31:11.517Z,4.50
2022-08-14T14:33:47.874Z,4.85
2022-08-14T14:36:23.395Z,5.05
2022-08-14T14:39:01.246Z,4.22
2022-08-14T14:41:37.721Z,4.57
2022-08-14T14:44:15.646Z,4.30
2022-08-14T14:46:50.963Z,4.50
2022-08-14T14:49:31.768Z,4.88
2022-08-14T14:52:15.294Z,4.40
2022-08-14T14:54:50.195Z,4.15
2022-08-14T14:57:18.584Z,4.53
2022-08-14T14:59:45.917Z,4.60
2022-08-14T15:02:27.220Z,4.50
2022-08-14T15:04:56.167Z,4.38
2022-08-14T15:07:23.075Z,4.80
2022-08-14T15:09:49.598Z,5.10
2022-08-14T15:12:55.419Z,5.45
2022-08-14T15:15:08.574Z,6.88
2022-08-14T15:17:41.032Z,7.78
2022-08-14T15:20:17.186Z,8.43
2022-08-14T15:22:58.088Z,8.30
2022-08-14T15:25:24.806Z,8.60
2022-08-14T15:27:54.651Z,7.57
2022-08-14T15:30:23.802Z,9.15
2022-08-14T15:32:51.622Z,9.57
2022-08-14T15:35:22.380Z,10.13
2022-08-14T15:37:55.924Z,10.43
2022-08-14T15:40:24.269Z,10.25
2022-08-14T15:42:51.144Z,10.32
2022-08-14T15:45:18.924Z,10.40
2022-08-14T15:47:45.432Z,12.10
2022-08-14T15:50:13.206Z,13.85
2022-08-14T15:52:42.993Z,13.90
2022-08-14T15:55:14.676Z,16.40
2022-08-14T15:58:01.604Z,19.63
2022-08-14T16:00:50.447Z,17.67
2022-08-14T16:03:24.927Z,16.65
2022-08-14T16:05:55.850Z,16.92
2022-08-14T16:08:28.807Z,16.23
2022-08-14T16:11:02.994Z,16.75
2022-08-14T16:13:42.099Z,18.10
2022-08-14T16:16:47.517Z,18.20
2022-08-14T16:19:10.698Z,18.80
2022-08-14T16:21:40.128Z,17.33
2022-08-14T16:24:27.520Z,15.70
2022-08-14T16:27:00.722Z,13.10
2022-08-14T16:29:31.678Z,13.18
2022-08-14T16:32:01.721Z,12.60
2022-08-14T16:34:49.998Z,11.32
2022-08-14T16:37:21.249Z,9.77
2022-08-14T16:39:49.307Z,10.27
2022-08-14T16:42:39.228Z,10.07
2022-08-14T16:45:03.976Z,10.43
2022-08-14T16:47:32.206Z,7.18
2022-08-14T16:50:04.776Z,4.82
2022-08-14T16:52:44.797Z,2.30
2022-08-14T16:55:22.381Z,2.33
2022-08-14T16:57:58.755Z,1.80
2022-08-14T17:00:33.029Z,2.00
2022-08-14T17:03:11.625Z,2.08
2022-08-14T17:05:43.022Z,2.20
2022-08-14T17:08:31.961Z,1.90
2022-08-14T17:11:10.592Z,1.95
2022-08-14T17:13:57.696Z,1.90
2022-08-14T17:16:30.461Z,2.40
2022-08-14T17:19:01.673Z,2.57
2022-08-14T17:21:41.608Z,2.65
2022-08-14T17:24:55.948Z,2.80
2022-08-14T17:27:03.599Z,2.95
2022-08-14T17:29:34.778Z,3.22
2022-08-14T17:32:19.283Z,2.97
2022-08-14T17:34:55.402Z,2.90
2022-08-14T17:37:29.608Z,3.25
2022-08-14T17:40:01.156Z,3.35
2022-08-14T17:43:01.629Z,3.17
2022-08-14T17:45:41.311Z,3.17
2022-08-14T17:49:14.295Z,3.38
2022-08-14T17:51:12.356Z,3.30
2022-08-14T17:53:52.872Z,3.45
2022-08-14T17:56:29.030Z,3.85
2022-08-14T17:59:02.485Z,3.73
2022-08-14T18:01:35.637Z,3.90
2022-08-14T18:04:05.718Z,4.35
2022-08-14T18:06:58.531Z,3.80
2022-08-14T18:09:40.410Z,4.07
2022-08-14T18:12:31.759Z,4.40
2022-08-14T18:15:16.012Z,4.22
2022-08-14T18:17:53.198Z,4.05
2022-08-14T18:21:40.013Z,3.55
2022-08-14T18:23:13.004Z,4.05
2022-08-14T18:25:48.692Z,4.00
2022-08-14T18:28:18.357Z,3.30
2022-08-14T18:31:24.568Z,3.63
2022-08-14T18:34:12.189Z,3.65
2022-08-14T18:36:57.765Z,4.10
2022-08-14T18:39:31.509Z,3.73
2022-08-14T18:42:23.353Z,4.28
2022-08-14T18:44:53.858Z,4.80
2022-08-14T18:47:23.076Z,5.03
2022-08-14T18:50:27.560Z,4.78
2022-08-14T18:53:06.879Z,4.17
2022-08-14T18:55:33.517Z,4.43
2022-08-14T18:58:00.817Z,4.18
2022-08-14T19:00:33.912Z,4.45
2022-08-14T19:03:04.981Z,5.00
2022-08-14T19:05:47.280Z,4.60
2022-08-14T19:08:25.161Z,4.70
2022-08-14T19:10:55.598Z,4.20
2022-08-14T19:13:48.912Z,4.90
2022-08-14T19:16:26.101Z,5.50
2022-08-14T19:19:00.452Z,5.20
2022-08-14T19:21:43.496Z,4.80
2022-08-14T19:24:27.494Z,4.97
2022-08-14T19:27:19.175Z,5.28
2022-08-14T19:29:51.597Z,5.18
2022-08-14T19:32:36.781Z,5.20
2022-08-14T19:35:18.038Z,5.32
2022-08-14T19:37:55.404Z,5.65
2022-08-14T19:40:44.454Z,5.90
2022-08-14T19:43:56.727Z,4.95
2022-08-14T19:46:37.599Z,5.30
2022-08-14T19:48:57.775Z,6.07
2022-08-14T19:51:24.799Z,6.13
2022-08-14T19:54:13.329Z,6.35
2022-08-14T19:56:45.321Z,6.70
2022-08-14T19:59:17.514Z,6.37
2022-08-14T20:01:44.850Z,6.35
2022-08-14T20:04:45.413Z,6.78
2022-08-14T20:07:08.921Z,6.50
2022-08-14T20:11:09.818Z,6.55
2022-08-14T20:12:35.446Z,7.27
2022-08-14T20:15:20.967Z,6.57
2022-08-14T20:17:52.687Z,7.07
2022-08-14T20:20:31.904Z,7.53
2022-08-14T20:23:10.866Z,7.97
2022-08-14T20:25:45.438Z,7.47
2022-08-14T20:28:30.658Z,7.38
2022-08-14T20:31:17.917Z,6.47
2022-08-14T20:34:24.201Z,7.78
2022-08-14T20:37:13.088Z,8.07
2022-08-14T20:39:43.727Z,7.30
2022-08-14T20:42:34.915Z,7.50
2022-08-14T20:45:24.741Z,7.40
2022-08-14T20:48:08.963Z,7.32
2022-08-14T20:50:36.904Z,7.57
2022-08-14T20:53:34.767Z,6.23
2022-08-14T20:56:28.993Z,5.95
2022-08-14T20:58:57.082Z,6.55
2022-08-14T21:01:24.050Z,6.38
2022-08-14T21:04:00.360Z,6.10
2022-08-14T21:07:23.940Z,6.93
2022-08-14T21:10:04.743Z,6.57
2022-08-14T21:12:35.099Z,7.07
2022-08-14T21:14:59.917Z,6.68
2022-08-14T21:17:27.446Z,7.00
2022-08-14T21:19:54.010Z,6.93
2022-08-14T21:22:22.194Z,8.32
2022-08-14T21:24:48.723Z,7.10
2022-08-14T21:27:20.277Z,7.03
2022-08-14T21:29:55.572Z,6.95
2022-08-14T21:32:34.950Z,6.83
2022-08-14T21:35:09.050Z,7.22
2022-08-14T21:37:44.152Z,6.53
2022-08-14T21:40:29.626Z,6.57
2022-08-14T21:43:01.017Z,6.30
2022-08-14T21:45:35.358Z,6.37
2022-08-14T21:48:09.195Z,6.43
2022-08-14T21:51:01.536Z,6.50
2022-08-14T21:53:30.854Z,6.32
2022-08-14T21:55:59.262Z,5.90
2022-08-14T21:58:51.679Z,6.30
2022-08-14T22:01:15.987Z,6.40
2022-08-14T22:03:45.068Z,6.55
2022-08-14T22:06:20.933Z,6.72
2022-08-14T22:08:55.689Z,6.97
2022-08-14T22:11:22.742Z,6.60
2022-08-14T22:13:50.931Z,6.97
2022-08-14T22:17:02.139Z,6.97
2022-08-14T22:19:05.846Z,6.90
2022-08-14T22:21:37.994Z,6.90
2022-08-14T22:24:11.813Z,7.13
2022-08-14T22:26:44.392Z,7.22
2022-08-14T22:29:14.290Z,7.20
2022-08-14T22:31:43.909Z,7.03
2022-08-14T22:34:17.146Z,7.05
2022-08-14T22:36:47.621Z,7.03
2022-08-14T22:40:17.186Z,7.18
2022-08-14T22:42:21.095Z,6.97
2022-08-14T22:44:49.029Z,6.78
2022-08-14T22:47:15.626Z,7.10
2022-08-14T22:50:30.507Z,7.30
2022-08-14T22:52:32.938Z,6.68
2022-08-14T22:55:00.370Z,7.25
2022-08-14T22:57:41.734Z,7.00
2022-08-14T23:00:25.200Z,6.60
2022-08-14T23:02:58.166Z,7.23
2022-08-14T23:05:34.166Z,7.72
2022-08-14T23:08:56.115Z,7.40
2022-08-14T23:10:57.624Z,6.78
2022-08-14T23:13:24.707Z,7.38
2022-08-14T23:15:51.241Z,7.60
2022-08-14T23:18:18.121Z,7.10
2022-08-14T23:20:48.934Z,7.60
2022-08-14T23:23:22.624Z,7.25
2022-08-14T23:26:00.092Z,7.45
2022-08-14T23:28:58.239Z,7.40
2022-08-14T23:31:34.932Z,7.63
2022-08-14T23:34:20.398Z,7.28
2022-08-14T23:36:56.764Z,7.65
2022-08-14T23:39:31.545Z,8.35
2022-08-14T23:42:08.377Z,7.47
2022-08-14T23:44:37.800Z,7.50
2022-08-14T23:47:11.880Z,7.85
2022-08-14T23:50:01.149Z,7.88
2022-08-14T23:52:51.575Z,8.10
2022-08-14T23:55:23.824Z,7.97
2022-08-14T23:57:57.826Z,7.70
